createdAt,value
2022-12-26T00:00:28.186Z,14.20
2022-12-26T00:02:55.005Z,14.30
2022-12-26T00:05:21.758Z,14.20
2022-12-26T00:07:48.529Z,14.20
2022-12-26T00:10:15.256Z,14.20
2022-12-26T00:12:42.012Z,14.20
2022-12-26T00:15:09.419Z,14.20
2022-12-26T00:17:36.163Z,14.20
2022-12-26T00:20:04.467Z,14.20
2022-12-26T00:22:31.220Z,14.20
2022-12-26T00:24:57.978Z,14.20
2022-12-26T00:27:24.741Z,14.20
2022-12-26T00:29:51.405Z,14.20
2022-12-26T00:32:18.114Z,14.20
2022-12-26T00:34:44.839Z,14.20
2022-12-26T00:37:11.564Z,14.20
2022-12-26T00:39:38.292Z,14.20
2022-12-26T00:42:05.003Z,14.20
2022-12-26T00:44:31.733Z,14.20
2022-12-26T00:46:58.582Z,14.20
2022-12-26T00:49:25.435Z,14.20
2022-12-26T00:51:52.157Z,14.20
2022-12-26T00:54:18.952Z,14.20
2022-12-26T00:56:45.735Z,14.20
2022-12-26T00:59:12.708Z,14.20
2022-12-26T01:01:39.606Z,14.10
2022-12-26T01:04:06.481Z,14.20
2022-12-26T01:06:33.430Z,14.20
2022-12-26T01:09:00.258Z,14.10
2022-12-26T01:11:42.575Z,14.20
2022-12-26T01:14:10.857Z,14.20
2022-12-26T01:16:38.880Z,14.20
2022-12-26T01:19:06.334Z,14.10
2022-12-26T01:21:33.481Z,14.10
2022-12-26T01:24:00.755Z,14.10
2022-12-26T01:26:27.537Z,14.10
2022-12-26T01:28:54.431Z,14.20
2022-12-26T01:31:22.663Z,14.10
2022-12-26T01:33:49.505Z,14.10
2022-12-26T01:36:17.641Z,14.10
2022-12-26T01:38:45.225Z,14.10
2022-12-26T01:41:19.830Z,14.10
2022-12-26T01:43:54.249Z,14.10
2022-12-26T01:46:45.568Z,14.20
2022-12-26T01:49:41.292Z,14.30
2022-12-26T01:52:12.590Z,14.30
2022-12-26T01:54:43.031Z,14.40
2022-12-26T01:57:24.056Z,14.60
2022-12-26T01:59:52.101Z,14.70
2022-12-26T02:02:21.787Z,14.80
2022-12-26T02:05:10.143Z,14.90
2022-12-26T02:07:40.465Z,15.00
2022-12-26T02:10:21.618Z,15.10
2022-12-26T02:12:49.690Z,15.10
2022-12-26T02:15:17.775Z,15.20
2022-12-26T02:17:46.792Z,15.20
2022-12-26T02:20:23.550Z,15.30
2022-12-26T02:23:09.007Z,15.30
2022-12-26T02:25:53.798Z,15.40
2022-12-26T02:28:50.643Z,15.40
2022-12-26T02:31:39.486Z,15.40
2022-12-26T02:34:20.839Z,15.50
2022-12-26T02:36:59.492Z,15.50
2022-12-26T02:39:56.015Z,15.40
2022-12-26T02:42:45.643Z,15.50
2022-12-26T02:45:42.201Z,15.50
2022-12-26T02:48:33.257Z,15.50
2022-12-26T02:51:37.383Z,15.50
2022-12-26T02:54:22.486Z,15.50
2022-12-26T02:57:16.123Z,15.50
2022-12-26T03:00:18.913Z,15.50
2022-12-26T03:03:24.221Z,15.50
2022-12-26T03:06:21.669Z,15.40
2022-12-26T03:09:24.521Z,15.50
2022-12-26T03:12:21.280Z,15.50
2022-12-26T03:14:54.060Z,15.40
2022-12-26T03:17:43.263Z,15.40
2022-12-26T03:20:15.338Z,15.40
2022-12-26T03:22:55.889Z,15.40
2022-12-26T03:26:08.931Z,15.40
2022-12-26T03:28:36.036Z,15.30
2022-12-26T03:31:06.898Z,15.30
2022-12-26T03:34:11.497Z,15.30
2022-12-26T03:36:55.787Z,15.30
2022-12-26T03:40:04.715Z,15.30
2022-12-26T03:43:15.335Z,15.30
2022-12-26T03:46:19.501Z,15.30
2022-12-26T03:49:24.977Z,15.20
2022-12-26T03:52:34.575Z,15.20
2022-12-26T03:55:23.165Z,15.20
2022-12-26T03:58:51.105Z,15.20
2022-12-26T04:01:40.927Z,15.20
2022-12-26T04:04:30.259Z,15.10
2022-12-26T04:07:30.505Z,15.10
2022-12-26T04:10:31.119Z,15.10
2022-12-26T04:13:18.416Z,15.10
2022-12-26T04:16:18.624Z,15.10
2022-12-26T04:19:25.619Z,15.00
2022-12-26T04:22:20.244Z,15.00
2022-12-26T04:25:48.971Z,15.00
2022-12-26T04:28:37.177Z,15.00
2022-12-26T04:31:32.556Z,15.00
2022-12-26T04:34:21.587Z,15.00
2022-12-26T04:37:14.761Z,14.90
2022-12-26T04:40:06.753Z,14.90
2022-12-26T04:42:53.238Z,14.90
2022-12-26T04:45:21.525Z,14.90
2022-12-26T04:48:09.199Z,14.90
2022-12-26T04:50:36.240Z,14.90
2022-12-26T04:53:03.000Z,14.90
2022-12-26T04:55:33.006Z,14.90
2022-12-26T04:58:00.115Z,14.90
2022-12-26T05:00:28.131Z,14.90
2022-12-26T05:03:18.797Z,14.80
2022-12-26T05:06:07.220Z,14.80
2022-12-26T05:08:59.070Z,14.80
2022-12-26T05:11:27.300Z,14.80
2022-12-26T05:13:55.077Z,14.80
2022-12-26T05:16:41.113Z,14.80
2022-12-26T05:19:30.064Z,14.80
2022-12-26T05:22:15.960Z,14.70
2022-12-26T05:25:02.507Z,14.70
2022-12-26T05:27:59.223Z,14.70
2022-12-26T05:30:26.264Z,14.70
2022-12-26T05:33:11.470Z,14.70
2022-12-26T05:35:39.155Z,14.70
2022-12-26T05:38:06.318Z,14.60
2022-12-26T05:40:33.067Z,14.60
2022-12-26T05:43:00.224Z,14.60
2022-12-26T05:45:27.052Z,14.60
2022-12-26T05:48:01.059Z,14.60
2022-12-26T05:50:28.187Z,14.60
2022-12-26T05:52:58.207Z,14.60
2022-12-26T05:55:25.587Z,14.60
2022-12-26T05:57:52.326Z,14.60
2022-12-26T06:00:19.491Z,14.60
2022-12-26T06:02:46.335Z,14.60
2022-12-26T06:05:13.081Z,14.60
2022-12-26T06:07:39.757Z,14.60
2022-12-26T06:10:07.076Z,14.50
2022-12-26T06:12:34.876Z,14.50
2022-12-26T06:15:01.793Z,14.50
2022-12-26T06:17:28.617Z,14.50
2022-12-26T06:19:55.383Z,14.50
2022-12-26T06:22:22.136Z,14.50
2022-12-26T06:24:48.969Z,14.50
2022-12-26T06:27:16.098Z,14.50
2022-12-26T06:29:42.837Z,14.50
2022-12-26T06:32:09.608Z,14.50
2022-12-26T06:34:36.306Z,14.40
2022-12-26T06:37:03.109Z,14.50
2022-12-26T06:39:29.873Z,14.40
2022-12-26T06:41:56.605Z,14.40
2022-12-26T06:44:23.289Z,14.40
2022-12-26T06:46:50.024Z,14.40
2022-12-26T06:49:16.849Z,14.40
2022-12-26T06:51:45.087Z,14.40
2022-12-26T06:54:11.841Z,14.40
2022-12-26T06:56:38.731Z,14.40
2022-12-26T06:59:06.223Z,14.40
2022-12-26T07:01:34.796Z,14.40
2022-12-26T07:04:01.851Z,14.40
2022-12-26T07:06:33.259Z,14.40
2022-12-26T07:09:14.250Z,14.40
2022-12-26T07:11:43.800Z,14.30
2022-12-26T07:14:10.455Z,14.30
2022-12-26T07:16:39.264Z,14.30
2022-12-26T07:19:07.623Z,14.30
2022-12-26T07:21:40.183Z,14.30
2022-12-26T07:24:18.606Z,14.30
2022-12-26T07:26:46.420Z,14.30
2022-12-26T07:29:13.947Z,14.30
2022-12-26T07:31:41.610Z,14.30
2022-12-26T07:34:08.606Z,14.30
2022-12-26T07:36:35.432Z,14.30
2022-12-26T07:39:02.278Z,14.30
2022-12-26T07:41:48.318Z,14.30
2022-12-26T07:44:15.043Z,14.30
2022-12-26T07:46:41.828Z,14.30
2022-12-26T07:49:10.911Z,14.30
2022-12-26T07:51:37.592Z,14.20
2022-12-26T07:54:10.760Z,14.20
2022-12-26T07:56:38.552Z,14.30
2022-12-26T07:59:05.738Z,14.20
2022-12-26T08:01:32.968Z,14.20
2022-12-26T08:03:59.949Z,14.20
2022-12-26T08:06:27.750Z,14.30
2022-12-26T08:08:54.489Z,14.30
2022-12-26T08:11:23.750Z,14.20
2022-12-26T08:13:51.892Z,14.30
2022-12-26T08:16:21.425Z,14.20
2022-12-26T08:18:48.242Z,14.20
2022-12-26T08:21:15.578Z,14.20
2022-12-26T08:23:42.321Z,14.30
2022-12-26T08:26:11.944Z,14.30
2022-12-26T08:28:42.150Z,14.40
2022-12-26T08:31:10.473Z,14.40
2022-12-26T08:33:37.384Z,14.50
2022-12-26T08:36:09.429Z,14.50
2022-12-26T08:38:37.157Z,14.60
2022-12-26T08:41:04.218Z,14.60
2022-12-26T08:44:24.947Z,14.70
2022-12-26T08:46:19.473Z,14.80
2022-12-26T08:48:46.823Z,14.80
2022-12-26T08:51:16.580Z,14.80
2022-12-26T08:53:43.711Z,14.80
2022-12-26T08:56:13.812Z,14.90
2022-12-26T08:58:41.246Z,14.90
2022-12-26T09:01:13.609Z,14.90
2022-12-26T09:03:41.280Z,14.90
2022-12-26T09:06:09.229Z,15.00
2022-12-26T09:08:37.132Z,15.00
2022-12-26T09:11:16.936Z,15.00
2022-12-26T09:13:44.662Z,15.00
2022-12-26T09:16:13.262Z,15.00
2022-12-26T09:18:40.607Z,15.00
2022-12-26T09:21:10.395Z,15.00
2022-12-26T09:23:38.276Z,15.00
2022-12-26T09:26:17.797Z,15.00
2022-12-26T09:28:46.970Z,15.00
2022-12-26T09:31:16.744Z,15.00
2022-12-26T09:33:44.054Z,15.00
2022-12-26T09:36:16.678Z,15.00
2022-12-26T09:38:44.503Z,15.00
2022-12-26T09:41:14.214Z,14.90
2022-12-26T09:44:08.686Z,14.90
2022-12-26T09:46:51.593Z,14.90
2022-12-26T09:49:28.990Z,14.90
2022-12-26T09:52:00.514Z,14.90
2022-12-26T09:54:37.529Z,14.90
2022-12-26T09:57:15.083Z,14.90
2022-12-26T10:00:01.550Z,14.90
2022-12-26T10:02:28.540Z,14.90
2022-12-26T10:04:55.735Z,14.90
2022-12-26T10:07:39.199Z,14.90
2022-12-26T10:10:18.175Z,14.80
2022-12-26T10:13:05.686Z,14.80
2022-12-26T10:15:41.752Z,14.80
2022-12-26T10:18:29.681Z,14.80
2022-12-26T10:21:20.731Z,14.80
2022-12-26T10:24:01.048Z,14.80
2022-12-26T10:26:38.459Z,14.80
2022-12-26T10:29:08.233Z,14.80
2022-12-26T10:32:01.269Z,14.80
2022-12-26T10:34:41.947Z,14.80
2022-12-26T10:37:30.859Z,14.80
2022-12-26T10:40:30.716Z,14.70
2022-12-26T10:43:06.125Z,14.80
2022-12-26T10:45:43.292Z,14.70
2022-12-26T10:48:16.444Z,14.70
2022-12-26T10:50:49.244Z,14.70
2022-12-26T10:53:21.756Z,14.70
2022-12-26T10:55:52.579Z,14.70
2022-12-26T10:58:23.819Z,14.70
2022-12-26T11:00:50.651Z,14.70
2022-12-26T11:03:19.814Z,14.70
2022-12-26T11:06:10.887Z,14.60
2022-12-26T11:08:51.639Z,14.70
2022-12-26T11:11:18.317Z,14.60
2022-12-26T11:14:34.105Z,14.60
2022-12-26T11:17:11.261Z,14.60
2022-12-26T11:19:43.143Z,14.60
2022-12-26T11:22:29.200Z,14.60
2022-12-26T11:25:19.053Z,14.60
2022-12-26T11:27:54.504Z,14.60
2022-12-26T11:30:34.450Z,14.60
2022-12-26T11:33:08.380Z,14.60
2022-12-26T11:35:46.919Z,14.60
2022-12-26T11:38:38.963Z,14.60
2022-12-26T11:41:27.908Z,14.60
2022-12-26T11:43:56.944Z,14.60
2022-12-26T11:46:34.376Z,14.50
2022-12-26T11:49:02.359Z,14.50
2022-12-26T11:51:40.660Z,14.50
2022-12-26T11:54:29.288Z,14.50
2022-12-26T11:57:07.939Z,14.50
2022-12-26T11:59:34.675Z,14.50
2022-12-26T12:02:22.678Z,14.50
2022-12-26T12:04:51.730Z,14.50
2022-12-26T12:07:35.704Z,14.50
2022-12-26T12:10:23.501Z,14.50
2022-12-26T12:13:01.420Z,14.50
2022-12-26T12:15:59.989Z,14.50
2022-12-26T12:19:00.876Z,14.50
2022-12-26T12:21:42.847Z,14.50
2022-12-26T12:24:46.983Z,14.50
2022-12-26T12:27:40.093Z,14.40
2022-12-26T12:30:27.027Z,14.40
2022-12-26T12:33:07.379Z,14.40
2022-12-26T12:36:01.417Z,14.40
2022-12-26T12:38:56.382Z,14.40
2022-12-26T12:41:42.332Z,14.40
2022-12-26T12:44:39.391Z,14.40
2022-12-26T12:47:24.239Z,14.40
2022-12-26T12:50:03.019Z,14.40
2022-12-26T12:52:42.378Z,14.40
2022-12-26T12:55:39.874Z,14.40
2022-12-26T12:58:17.346Z,14.40
2022-12-26T13:00:54.193Z,14.40
2022-12-26T13:03:40.710Z,14.40
2022-12-26T13:06:29.201Z,14.30
2022-12-26T13:09:02.661Z,14.40
2022-12-26T13:11:35.270Z,14.30
2022-12-26T13:14:07.750Z,14.40
2022-12-26T13:17:06.127Z,14.30
2022-12-26T13:19:40.475Z,14.30
2022-12-26T13:22:26.255Z,14.30
2022-12-26T13:24:58.675Z,14.30
2022-12-26T13:27:32.470Z,14.30
2022-12-26T13:29:59.275Z,14.30
2022-12-26T13:32:31.363Z,14.30
2022-12-26T13:35:00.827Z,14.30
2022-12-26T13:37:39.781Z,14.30
2022-12-26T13:40:19.931Z,14.30
2022-12-26T13:43:15.655Z,14.30
2022-12-26T13:45:42.441Z,14.20
2022-12-26T13:48:18.262Z,14.30
2022-12-26T13:50:56.084Z,14.20
2022-12-26T13:53:26.319Z,14.30
2022-12-26T13:55:58.633Z,14.30
2022-12-26T13:58:54.799Z,14.20
2022-12-26T14:01:55.459Z,14.20
2022-12-26T14:04:22.562Z,14.20
2022-12-26T14:07:12.977Z,14.20
2022-12-26T14:10:07.114Z,14.20
2022-12-26T14:12:55.440Z,14.20
2022-12-26T14:15:30.159Z,14.20
2022-12-26T14:18:19.612Z,14.20
2022-12-26T14:21:22.120Z,14.20
2022-12-26T14:23:54.633Z,14.10
2022-12-26T14:26:33.548Z,14.20
2022-12-26T14:29:13.090Z,14.20
2022-12-26T14:31:45.803Z,14.10
2022-12-26T14:34:27.676Z,14.10
2022-12-26T14:37:00.041Z,14.10
2022-12-26T14:39:46.954Z,14.10
2022-12-26T14:42:35.146Z,14.10
2022-12-26T14:45:04.168Z,14.10
2022-12-26T14:47:49.068Z,14.10
2022-12-26T14:50:38.622Z,14.10
2022-12-26T14:53:24.268Z,14.10
2022-12-26T14:55:53.435Z,14.10
2022-12-26T14:58:26.376Z,14.00
2022-12-26T15:00:54.678Z,14.00
2022-12-26T15:03:24.211Z,14.00
2022-12-26T15:05:52.267Z,14.00
2022-12-26T15:08:37.338Z,14.00
2022-12-26T15:11:27.597Z,14.10
2022-12-26T15:14:13.338Z,14.00
2022-12-26T15:17:01.653Z,14.00
2022-12-26T15:19:37.132Z,14.00
2022-12-26T15:22:24.767Z,14.00
2022-12-26T15:27:57.980Z,14.00
2022-12-26T15:30:45.363Z,14.00
2022-12-26T15:33:38.304Z,14.00
2022-12-26T15:36:35.901Z,13.90
2022-12-26T15:39:34.495Z,14.00
2022-12-26T15:42:25.242Z,14.00
2022-12-26T15:45:28.213Z,13.90
2022-12-26T15:48:23.369Z,13.90
2022-12-26T15:50:53.149Z,13.90
2022-12-26T15:53:46.369Z,13.90
2022-12-26T15:56:41.632Z,13.90
2022-12-26T15:59:14.179Z,13.90
2022-12-26T16:01:43.064Z,13.90
2022-12-26T16:04:29.088Z,13.90
2022-12-26T16:07:31.964Z,13.90
2022-12-26T16:09:59.503Z,13.80
2022-12-26T16:12:26.461Z,13.90
2022-12-26T16:15:11.253Z,13.90
2022-12-26T16:17:39.366Z,13.80
2022-12-26T16:20:42.655Z,13.80
2022-12-26T16:23:16.995Z,13.80
2022-12-26T16:25:52.489Z,13.80
2022-12-26T16:28:27.499Z,13.80
2022-12-26T16:30:56.523Z,13.80
2022-12-26T16:33:23.566Z,13.80
2022-12-26T16:35:53.808Z,13.80
2022-12-26T16:38:27.577Z,13.80
2022-12-26T16:40:56.326Z,13.80
2022-12-26T16:43:34.499Z,13.80
2022-12-26T16:46:05.816Z,13.80
2022-12-26T16:48:33.916Z,13.90
2022-12-26T16:51:05.150Z,13.90
2022-12-26T16:53:40.431Z,14.10
2022-12-26T16:56:33.395Z,14.10
2022-12-26T16:59:07.187Z,14.30
2022-12-26T17:01:34.936Z,14.40
2022-12-26T17:04:18.597Z,14.50
2022-12-26T17:06:48.977Z,14.60
2022-12-26T17:09:18.321Z,14.70
2022-12-26T17:11:54.987Z,14.80
2022-12-26T17:14:28.819Z,14.90
2022-12-26T17:17:03.946Z,15.00
2022-12-26T17:19:36.686Z,15.10
2022-12-26T17:22:18.969Z,15.20
2022-12-26T17:24:50.826Z,15.20
2022-12-26T17:27:24.529Z,15.30
2022-12-26T17:30:00.510Z,15.30
2022-12-26T17:32:30.019Z,15.40
2022-12-26T17:35:01.490Z,15.40
2022-12-26T17:37:28.675Z,15.40
2022-12-26T17:40:19.674Z,15.40
2022-12-26T17:42:53.505Z,15.40
2022-12-26T17:45:26.098Z,15.40
2022-12-26T17:47:54.227Z,15.40
2022-12-26T17:50:23.429Z,15.40
2022-12-26T17:52:51.562Z,15.40
2022-12-26T17:55:25.332Z,15.40
2022-12-26T17:57:54.040Z,15.40
2022-12-26T18:00:24.563Z,15.30
2022-12-26T18:02:52.248Z,15.40
2022-12-26T18:05:20.090Z,15.40
2022-12-26T18:07:49.476Z,15.30
2022-12-26T18:10:22.950Z,15.30
2022-12-26T18:12:54.793Z,15.30
2022-12-26T18:15:23.138Z,15.30
2022-12-26T18:17:51.958Z,15.30
2022-12-26T18:20:26.491Z,15.20
2022-12-26T18:23:02.058Z,15.20
2022-12-26T18:25:31.907Z,15.20
2022-12-26T18:27:59.775Z,15.20
2022-12-26T18:30:31.611Z,15.20
2022-12-26T18:33:05.158Z,15.10
2022-12-26T18:35:35.137Z,15.10
2022-12-26T18:38:08.138Z,15.10
2022-12-26T18:40:44.722Z,15.10
2022-12-26T18:43:15.112Z,15.00
2022-12-26T18:45:46.037Z,15.00
2022-12-26T18:48:20.565Z,15.00
2022-12-26T18:50:52.206Z,15.00
2022-12-26T18:53:19.492Z,15.00
2022-12-26T18:55:46.884Z,14.90
2022-12-26T18:58:18.685Z,14.90
2022-12-26T19:00:46.289Z,14.90
2022-12-26T19:03:13.187Z,14.90
2022-12-26T19:05:40.585Z,14.90
2022-12-26T19:08:07.637Z,14.80
2022-12-26T19:10:35.357Z,14.80
2022-12-26T19:13:06.043Z,14.80
2022-12-26T19:15:36.691Z,14.80
2022-12-26T19:18:04.829Z,14.80
2022-12-26T19:20:31.674Z,14.70
2022-12-26T19:22:58.434Z,14.80
2022-12-26T19:25:25.882Z,14.70
2022-12-26T19:27:53.277Z,14.70
2022-12-26T19:30:21.081Z,14.70
2022-12-26T19:32:48.474Z,14.70
2022-12-26T19:35:15.981Z,14.60
2022-12-26T19:37:43.158Z,14.60
2022-12-26T19:40:11.111Z,14.60
2022-12-26T19:42:38.415Z,14.60
2022-12-26T19:45:06.911Z,14.60
2022-12-26T19:47:34.719Z,14.50
2022-12-26T19:50:01.967Z,14.50
2022-12-26T19:52:29.249Z,14.50
2022-12-26T19:54:55.961Z,14.50
2022-12-26T19:57:23.323Z,14.50
2022-12-26T19:59:50.945Z,14.50
2022-12-26T20:02:17.875Z,14.40
2022-12-26T20:04:44.824Z,14.40
2022-12-26T20:07:11.597Z,14.40
2022-12-26T20:09:38.427Z,14.40
2022-12-26T20:12:05.317Z,14.40
2022-12-26T20:14:32.590Z,14.40
2022-12-26T20:17:08.798Z,14.40
2022-12-26T20:19:36.350Z,14.40
2022-12-26T20:22:04.541Z,14.30
2022-12-26T20:24:31.453Z,14.30
2022-12-26T20:26:58.320Z,14.30
2022-12-26T20:29:25.546Z,14.30
2022-12-26T20:31:55.128Z,14.30
2022-12-26T20:34:22.075Z,14.30
2022-12-26T20:36:48.854Z,14.20
2022-12-26T20:39:17.649Z,14.20
2022-12-26T20:41:45.025Z,14.20
2022-12-26T20:44:16.722Z,14.20
2022-12-26T20:46:44.585Z,14.20
2022-12-26T20:49:11.300Z,14.20
2022-12-26T20:51:40.521Z,14.20
2022-12-26T20:54:08.924Z,14.20
2022-12-26T20:56:37.437Z,14.20
2022-12-26T20:59:06.305Z,14.10
2022-12-26T21:01:33.682Z,14.10
2022-12-26T21:04:01.043Z,14.10
2022-12-26T21:06:32.138Z,14.10
2022-12-26T21:08:59.047Z,14.10
2022-12-26T21:11:28.485Z,14.10
2022-12-26T21:14:01.612Z,14.20
2022-12-26T21:16:34.669Z,14.20
2022-12-26T21:19:02.064Z,14.30
2022-12-26T21:21:32.029Z,14.30
2022-12-26T21:24:06.395Z,14.40
2022-12-26T21:26:36.359Z,14.60
2022-12-26T21:29:07.454Z,14.60
2022-12-26T21:31:35.508Z,14.70
2022-12-26T21:34:03.853Z,14.90
2022-12-26T21:36:31.576Z,14.90
2022-12-26T21:38:58.600Z,15.00
2022-12-26T21:41:25.868Z,15.10
2022-12-26T21:43:54.459Z,15.10
2022-12-26T21:46:21.716Z,15.20
2022-12-26T21:48:49.957Z,15.20
2022-12-26T21:51:18.333Z,15.30
2022-12-26T21:53:45.546Z,15.30
2022-12-26T21:56:14.210Z,15.30
2022-12-26T21:59:00.212Z,15.30
2022-12-26T22:01:28.111Z,15.30
2022-12-26T22:04:17.131Z,15.30
2022-12-26T22:06:43.880Z,15.40
2022-12-26T22:09:10.652Z,15.30
2022-12-26T22:11:57.399Z,15.40
2022-12-26T22:14:24.649Z,15.30
2022-12-26T22:16:52.786Z,15.30
2022-12-26T22:19:19.717Z,15.30
2022-12-26T22:21:46.488Z,15.30
2022-12-26T22:24:13.244Z,15.30
2022-12-26T22:26:39.931Z,15.30
2022-12-26T22:29:06.706Z,15.30
2022-12-26T22:31:35.838Z,15.30
2022-12-26T22:34:04.189Z,15.20
2022-12-26T22:36:31.631Z,15.20
2022-12-26T22:38:59.088Z,15.20
2022-12-26T22:41:26.589Z,15.20
2022-12-26T22:43:55.645Z,15.20
2022-12-26T22:46:22.638Z,15.10
2022-12-26T22:48:49.438Z,15.10
2022-12-26T22:51:21.636Z,15.10
2022-12-26T22:53:48.680Z,15.10
2022-12-26T22:56:15.743Z,15.00
2022-12-26T22:58:42.457Z,15.00
2022-12-26T23:01:14.414Z,15.00
2022-12-26T23:03:41.698Z,15.00
2022-12-26T23:06:28.721Z,15.00
2022-12-26T23:08:58.662Z,14.90
2022-12-26T23:11:33.934Z,14.90
2022-12-26T23:14:02.123Z,14.90
2022-12-26T23:16:54.095Z,14.90
2022-12-26T23:19:49.720Z,14.90
2022-12-26T23:22:32.968Z,14.80
2022-12-26T23:25:02.822Z,14.80
2022-12-26T23:27:51.644Z,14.90
2022-12-26T23:30:30.968Z,15.00
2022-12-26T23:33:01.041Z,15.00
2022-12-26T23:35:27.980Z,15.10
2022-12-26T23:37:54.832Z,15.20
2022-12-26T23:40:22.487Z,15.30
2022-12-26T23:42:49.381Z,15.40
2022-12-26T23:45:16.262Z,15.50
2022-12-26T23:47:44.784Z,15.60
2022-12-26T23:50:13.623Z,15.70
2022-12-26T23:52:40.477Z,15.80
2022-12-26T23:55:07.665Z,15.90
2022-12-26T23:57:34.585Z,15.90
